Time;durP1;ratioP1;P1;durP2;ratioP2;P2;SDS_P1;SDS_P2;PMS_P1;PMS_P2;Temp;Humidity;BMP_temperature;BMP_pressure;BME280_temperature;BME280_humidity;BME280_pressure;Samples;Min_cycle;Max_cycle;Signal;HPM_P1;HPM_P2
2021/01/04 00:00:09;;;;;;;12.20;6.03;;;2.40;99.90;;;;;;5061753;28;20112;-56
2021/01/04 00:02:52;;;;;;;12.02;6.22;;;2.40;99.90;;;;;;5068660;28;20032;-57
2021/01/04 00:05:42;;;;;;;15.45;6.82;;;2.30;99.90;;;;;;5060194;28;20035;-57
2021/01/04 00:08:49;;;;;;;10.50;5.82;;;2.30;99.90;;;;;;5070879;28;20028;-56
2021/01/04 00:11:30;;;;;;;12.43;6.32;;;2.30;99.90;;;;;;5053215;28;20057;-56
2021/01/04 00:14:17;;;;;;;11.68;5.97;;;2.30;99.90;;;;;;5053394;28;20036;-58
2021/01/04 00:16:55;;;;;;;14.23;6.45;;;2.20;99.90;;;;;;5055600;28;20028;-57
2021/01/04 00:19:40;;;;;;;13.85;6.35;;;2.20;99.90;;;;;;5066749;28;20047;-53
2021/01/04 00:22:24;;;;;;;11.55;6.20;;;2.20;99.90;;;;;;5072322;28;20484;-58
2021/01/04 00:25:11;;;;;;;11.77;5.05;;;2.20;99.90;;;;;;5055124;28;20032;-58
2021/01/04 00:27:40;;;;;;;18.80;7.90;;;2.10;99.90;;;;;;5070939;28;20382;-54
2021/01/04 00:30:24;;;;;;;25.02;7.75;;;2.10;99.90;;;;;;5068560;28;20029;-58
2021/01/04 00:32:52;;;;;;;13.43;5.88;;;2.10;99.90;;;;;;5051536;28;20036;-56
2021/01/04 00:35:21;;;;;;;13.88;5.78;;;2.00;99.90;;;;;;5053319;28;20033;-55
2021/01/04 00:38:17;;;;;;;15.02;5.45;;;2.00;99.90;;;;;;5065227;28;20024;-58
2021/01/04 00:40:57;;;;;;;9.95;4.30;;;1.90;99.90;;;;;;5051997;28;20037;-54
2021/01/04 00:43:53;;;;;;;9.38;4.45;;;1.80;99.90;;;;;;5067117;28;20454;-54
2021/01/04 00:46:25;;;;;;;10.70;4.40;;;1.80;99.90;;;;;;5054207;28;20052;-58
2021/01/04 00:49:14;;;;;;;11.80;4.40;;;1.80;99.90;;;;;;5058158;28;20013;-58
2021/01/04 00:51:47;;;;;;;11.80;4.93;;;1.80;99.90;;;;;;5070986;28;20561;-56
2021/01/04 00:54:25;;;;;;;8.75;4.50;;;1.80;99.90;;;;;;5054697;28;20112;-58
2021/01/04 00:57:00;;;;;;;10.02;4.28;;;1.80;99.90;;;;;;5051736;28;20459;-55
2021/01/04 00:59:47;;;;;;;10.40;4.18;;;1.70;99.90;;;;;;5062517;28;20029;-58
2021/01/04 01:02:42;;;;;;;10.98;4.40;;;1.70;99.90;;;;;;5070380;28;20024;-57
2021/01/04 01:05:23;;;;;;;15.60;4.30;;;1.60;99.90;;;;;;5058194;28;20032;-57
2021/01/04 01:08:14;;;;;;;12.50;4.03;;;1.60;99.90;;;;;;5069090;28;20056;-58
2021/01/04 01:10:51;;;;;;;11.48;3.95;;;1.60;99.90;;;;;;5051224;28;20052;-55
2021/01/04 01:13:36;;;;;;;12.35;3.95;;;1.60;99.90;;;;;;5051872;28;20025;-58
2021/01/04 01:16:07;;;;;;;10.27;4.20;;;1.60;99.90;;;;;;5065468;28;20362;-56
2021/01/04 01:18:38;;;;;;;11.93;4.20;;;1.60;99.90;;;;;;5059939;28;20033;-54
2021/01/04 01:21:07;;;;;;;10.25;3.65;;;1.60;99.90;;;;;;5066014;28;20060;-55
2021/01/04 01:23:35;;;;;;;10.98;4.53;;;1.70;99.90;;;;;;5069078;28;20083;-57
2021/01/04 01:26:04;;;;;;;14.02;4.25;;;1.70;99.90;;;;;;5057634;28;20044;-58
2021/01/04 01:28:41;;;;;;;11.27;3.75;;;1.80;99.90;;;;;;5054340;28;20021;-55
2021/01/04 01:31:07;;;;;;;13.55;3.72;;;1.90;99.90;;;;;;5051405;28;20056;-56
2021/01/04 01:33:42;;;;;;;10.18;3.53;;;2.00;99.90;;;;;;5059358;28;20068;-58
2021/01/04 01:36:45;;;;;;;14.05;3.78;;;2.10;99.90;;;;;;5065674;28;20052;-56
2021/01/04 01:39:36;;;;;;;10.18;3.40;;;2.20;99.90;;;;;;5069931;28;20039;-56
2021/01/04 01:42:40;;;;;;;14.20;3.50;;;2.40;99.90;;;;;;5051521;28;20063;-55
2021/01/04 01:45:09;;;;;;;12.10;2.63;;;2.50;99.90;;;;;;5050291;28;20037;-59
2021/01/04 01:48:07;;;;;;;14.13;3.30;;;2.70;99.90;;;;;;5053354;28;20412;-55
2021/01/04 01:50:42;;;;;;;16.80;3.45;;;2.70;99.90;;;;;;5065033;28;20074;-58
2021/01/04 01:53:14;;;;;;;12.82;3.30;;;2.70;99.90;;;;;;5054813;28;20029;-58
2021/01/04 01:56:09;;;;;;;6.90;2.53;;;2.70;99.90;;;;;;5071116;28;20040;-59
2021/01/04 01:58:45;;;;;;;8.20;2.43;;;2.70;99.90;;;;;;5059511;28;20424;-56
2021/01/04 02:01:22;;;;;;;12.70;3.22;;;2.70;99.90;;;;;;5051316;28;20279;-57
2021/01/04 02:04:00;;;;;;;10.88;2.88;;;2.70;99.90;;;;;;5059239;28;20366;-54
2021/01/04 02:06:31;;;;;;;14.68;3.67;;;2.70;99.90;;;;;;5073026;28;20025;-56
2021/01/04 02:09:10;;;;;;;9.70;2.95;;;2.70;99.90;;;;;;5063047;28;20019;-57
2021/01/04 02:11:47;;;;;;;15.25;3.72;;;2.70;99.90;;;;;;5057399;28;20443;-57
2021/01/04 02:14:31;;;;;;;19.55;3.90;;;2.80;99.90;;;;;;5064469;28;20024;-54
2021/01/04 02:17:11;;;;;;;14.10;3.30;;;2.80;99.90;;;;;;5072515;28;20032;-54
2021/01/04 02:20:15;;;;;;;15.38;3.13;;;2.80;99.90;;;;;;5070781;28;20035;-57
2021/01/04 02:22:56;;;;;;;12.55;3.13;;;2.80;99.90;;;;;;5064785;28;20493;-55
2021/01/04 02:25:23;;;;;;;13.80;3.28;;;2.90;99.90;;;;;;5053852;28;20025;-55
2021/01/04 02:27:53;;;;;;;12.73;3.13;;;2.80;99.90;;;;;;5054973;28;20069;-55
2021/01/04 02:30:19;;;;;;;12.07;3.22;;;2.80;99.90;;;;;;5065319;28;20478;-58
2021/01/04 02:32:45;;;;;;;14.30;3.72;;;2.90;99.90;;;;;;5055876;28;20469;-58
2021/01/04 02:35:12;;;;;;;11.85;3.65;;;2.90;99.90;;;;;;5052153;28;20124;-56
2021/01/04 02:37:38;;;;;;;14.57;3.58;;;2.90;99.90;;;;;;5061819;28;20370;-57
2021/01/04 02:40:11;;;;;;;10.45;3.58;;;2.90;99.90;;;;;;5058550;28;20035;-57
2021/01/04 02:42:42;;;;;;;15.02;3.40;;;3.00;99.90;;;;;;5069327;28;20459;-55
2021/01/04 02:45:29;;;;;;;8.43;3.35;;;3.00;99.90;;;;;;5073875;28;20029;-58
2021/01/04 02:48:26;;;;;;;13.95;3.92;;;3.00;99.90;;;;;;5065557;28;20079;-55
2021/01/04 02:51:08;;;;;;;11.50;3.00;;;3.00;99.90;;;;;;5061948;28;20466;-59
2021/01/04 02:54:10;;;;;;;8.48;3.10;;;3.00;99.90;;;;;;5056643;28;20025;-57
2021/01/04 02:56:51;;;;;;;14.07;3.00;;;3.00;99.90;;;;;;5054178;28;20029;-56
2021/01/04 02:59:44;;;;;;;12.95;2.90;;;3.00;99.90;;;;;;5069792;28;20029;-57
2021/01/04 03:02:46;;;;;;;13.20;3.40;;;3.00;99.90;;;;;;5057204;28;20382;-54
2021/01/04 03:05:23;;;;;;;12.65;2.78;;;3.00;99.90;;;;;;5059423;28;20033;-56
2021/01/04 03:07:55;;;;;;;10.95;2.97;;;3.00;99.90;;;;;;5060677;28;20035;-57
2021/01/04 03:10:36;;;;;;;14.30;2.90;;;3.00;99.90;;;;;;5058697;28;20025;-54
2021/01/04 03:13:30;;;;;;;12.85;3.00;;;2.90;99.90;;;;;;5052015;28;20029;-59
2021/01/04 03:16:06;;;;;;;9.48;2.90;;;2.90;99.90;;;;;;5053829;28;20036;-56
2021/01/04 03:18:49;;;;;;;11.93;2.95;;;2.90;99.90;;;;;;5058588;28;20044;-56
2021/01/04 03:21:15;;;;;;;11.52;2.53;;;2.90;99.90;;;;;;5065498;28;20472;-57
2021/01/04 03:23:47;;;;;;;12.93;3.45;;;2.80;99.90;;;;;;5056999;28;20074;-58
2021/01/04 03:26:31;;;;;;;13.65;3.13;;;2.80;99.90;;;;;;5062375;28;20037;-54
2021/01/04 03:28:57;;;;;;;8.82;2.50;;;2.80;99.90;;;;;;5057039;28;20048;-58
2021/01/04 03:31:22;;;;;;;10.57;2.72;;;2.80;99.90;;;;;;5062043;28;20043;-57
2021/01/04 03:33:48;;;;;;;11.98;3.22;;;2.80;99.90;;;;;;5053414;28;20371;-58
2021/01/04 03:36:15;;;;;;;12.05;3.10;;;2.70;99.90;;;;;;5052962;28;20071;-55
2021/01/04 03:38:41;;;;;;;14.95;2.70;;;2.80;99.90;;;;;;5053678;28;20502;-54
2021/01/04 03:41:07;;;;;;;8.98;2.65;;;2.80;99.90;;;;;;5052685;28;20029;-55
2021/01/04 03:43:34;;;;;;;10.23;2.53;;;2.70;99.90;;;;;;5053948;28;20029;-58
2021/01/04 03:46:00;;;;;;;9.82;2.45;;;2.70;99.90;;;;;;5061394;28;20036;-57
2021/01/04 03:48:25;;;;;;;10.32;2.55;;;2.60;99.90;;;;;;5053179;28;20043;-57
2021/01/04 03:50:52;;;;;;;9.88;2.47;;;2.60;99.90;;;;;;5056357;28;20021;-56
2021/01/04 03:53:19;;;;;;;9.45;2.45;;;2.60;99.90;;;;;;5053055;28;20028;-55
2021/01/04 03:55:45;;;;;;;17.45;2.58;;;2.50;99.90;;;;;;5053887;28;20450;-54
2021/01/04 03:58:11;;;;;;;7.57;2.10;;;2.50;99.90;;;;;;5062489;28;20041;-55
2021/01/04 04:00:37;;;;;;;10.52;2.80;;;2.60;99.90;;;;;;5062847;28;20421;-54
2021/01/04 04:03:04;;;;;;;12.98;2.78;;;2.60;99.90;;;;;;5052455;28;20094;-56
2021/01/04 04:05:31;;;;;;;14.65;2.67;;;2.50;99.90;;;;;;5052864;28;20459;-57
2021/01/04 04:07:57;;;;;;;11.43;2.22;;;2.50;99.90;;;;;;5052782;28;20025;-57
2021/01/04 04:10:23;;;;;;;5.93;2.20;;;2.50;99.90;;;;;;5054973;28;20490;-57
2021/01/04 04:12:50;;;;;;;10.02;2.67;;;2.50;99.90;;;;;;5052769;28;20029;-52
2021/01/04 04:15:18;;;;;;;12.77;2.53;;;2.50;99.90;;;;;;5058283;28;20052;-55
2021/01/04 04:17:45;;;;;;;12.70;2.40;;;2.60;99.90;;;;;;5064332;28;20528;-55
2021/01/04 04:20:15;;;;;;;10.43;2.78;;;2.60;99.90;;;;;;5059311;28;20350;-57
2021/01/04 04:22:41;;;;;;;10.77;2.50;;;2.60;99.90;;;;;;5063453;28;20027;-55
2021/01/04 04:25:09;;;;;;;12.68;2.60;;;2.60;99.90;;;;;;5055943;28;20024;-56
2021/01/04 04:27:34;;;;;;;9.60;2.60;;;2.60;99.90;;;;;;5057174;28;20077;-55
2021/01/04 04:30:01;;;;;;;13.63;2.67;;;2.60;99.90;;;;;;5064778;28;20036;-57
2021/01/04 04:32:27;;;;;;;10.38;2.53;;;2.70;99.90;;;;;;5057014;28;20879;-55
2021/01/04 04:34:52;;;;;;;9.20;2.60;;;2.60;99.90;;;;;;5051451;28;20025;-55
2021/01/04 04:37:18;;;;;;;16.23;2.58;;;2.60;99.90;;;;;;5059607;28;20107;-57
2021/01/04 04:39:44;;;;;;;13.45;2.40;;;2.70;99.90;;;;;;5053289;28;20048;-56
2021/01/04 04:42:14;;;;;;;13.63;2.65;;;2.70;99.90;;;;;;5058906;28;20016;-55
2021/01/04 04:45:09;;;;;;;5.28;1.95;;;2.70;99.90;;;;;;5055033;28;20050;-55
2021/01/04 04:48:21;;;;;;;9.30;2.28;;;2.70;99.90;;;;;;5055376;28;20055;-55
2021/01/04 04:51:04;;;;;;;13.00;2.38;;;2.80;99.90;;;;;;5051985;28;20044;-52
2021/01/04 04:54:03;;;;;;;21.17;2.80;;;2.80;99.90;;;;;;5061915;28;20029;-55
2021/01/04 04:56:31;;;;;;;10.70;2.60;;;2.80;99.90;;;;;;5059242;28;20056;-58
2021/01/04 04:59:26;;;;;;;6.72;1.90;;;2.80;99.90;;;;;;5051787;28;20096;-58
2021/01/04 05:02:10;;;;;;;9.60;2.25;;;2.80;99.90;;;;;;5056288;28;20111;-55
2021/01/04 05:05:08;;;;;;;11.63;2.30;;;2.80;99.90;;;;;;5051515;28;20482;-56
2021/01/04 05:07:46;;;;;;;10.65;2.20;;;2.80;99.90;;;;;;5059821;28;20021;-57
2021/01/04 05:10:32;;;;;;;15.95;2.35;;;2.80;99.90;;;;;;5051055;28;20067;-57
2021/01/04 05:13:16;;;;;;;8.50;2.63;;;2.70;99.90;;;;;;5059135;28;20033;-54
2021/01/04 05:16:03;;;;;;;11.10;2.20;;;2.70;99.90;;;;;;5057359;28;20032;-55
2021/01/04 05:18:40;;;;;;;12.88;2.80;;;2.70;99.90;;;;;;5051661;28;20486;-57
2021/01/04 05:21:32;;;;;;;12.82;2.45;;;2.70;99.90;;;;;;5061184;28;20119;-55
2021/01/04 05:24:12;;;;;;;14.55;2.20;;;2.70;99.90;;;;;;5057146;28;20463;-54
2021/01/04 05:27:05;;;;;;;10.07;2.83;;;2.70;99.90;;;;;;5064540;28;20032;-55
2021/01/04 05:29:45;;;;;;;10.85;2.33;;;2.70;99.90;;;;;;5070513;28;20028;-54
2021/01/04 05:32:29;;;;;;;12.90;2.45;;;2.70;99.90;;;;;;5052367;28;20108;-55
2021/01/04 05:35:09;;;;;;;15.07;2.35;;;2.70;99.90;;;;;;5062627;28;20041;-56
2021/01/04 05:38:06;;;;;;;7.38;2.20;;;2.70;99.90;;;;;;5059850;28;20071;-54
2021/01/04 05:41:10;;;;;;;15.23;2.70;;;2.70;99.90;;;;;;5063930;28;20437;-58
2021/01/04 05:44:02;;;;;;;8.65;2.00;;;2.80;99.90;;;;;;5064808;28;20025;-56
2021/01/04 05:46:56;;;;;;;12.45;2.22;;;2.80;99.90;;;;;;5054842;28;20028;-55
2021/01/04 05:49:24;;;;;;;15.35;2.67;;;2.80;99.90;;;;;;5070415;28;20052;-55
2021/01/04 05:51:50;;;;;;;16.35;3.10;;;2.90;99.90;;;;;;5073280;28;20036;-58
2021/01/04 05:54:31;;;;;;;12.43;2.60;;;2.90;99.90;;;;;;5066674;28;20029;-57
2021/01/04 05:57:10;;;;;;;17.63;2.47;;;2.90;99.90;;;;;;5069139;28;20035;-53
2021/01/04 06:00:06;;;;;;;9.85;2.20;;;3.00;99.90;;;;;;5063184;28;20374;-55
2021/01/04 06:02:34;;;;;;;9.30;2.00;;;3.00;99.90;;;;;;5071918;28;20041;-54
2021/01/04 06:05:15;;;;;;;7.50;1.83;;;3.00;99.90;;;;;;5058859;28;20029;-59
2021/01/04 06:07:44;;;;;;;8.07;2.22;;;3.00;99.90;;;;;;5054731;28;20059;-58
2021/01/04 06:10:43;;;;;;;8.77;2.50;;;3.00;99.90;;;;;;5059225;28;20028;-56
2021/01/04 06:13:14;;;;;;;15.18;2.58;;;2.90;99.90;;;;;;5060818;28;20502;-56
2021/01/04 06:15:42;;;;;;;10.65;2.10;;;2.90;99.90;;;;;;5061031;28;20016;-57
2021/01/04 06:18:19;;;;;;;13.23;2.70;;;2.90;99.90;;;;;;5068430;28;20481;-54
2021/01/04 06:20:45;;;;;;;19.23;3.35;;;2.90;99.90;;;;;;5066608;28;20032;-52
2021/01/04 06:23:14;;;;;;;13.05;2.33;;;3.00;99.90;;;;;;5065920;28;20039;-58
2021/01/04 06:25:40;;;;;;;15.65;2.30;;;3.00;99.90;;;;;;5070857;28;20086;-59
2021/01/04 06:28:05;;;;;;;15.23;2.88;;;2.90;99.90;;;;;;5061223;28;20029;-58
2021/01/04 06:30:41;;;;;;;12.63;2.60;;;2.90;99.90;;;;;;5055371;28;20039;-55
2021/01/04 06:33:16;;;;;;;10.70;2.42;;;2.80;99.90;;;;;;5067105;28;20512;-56
2021/01/04 06:35:42;;;;;;;9.82;2.28;;;2.90;99.90;;;;;;5057250;28;20012;-57
2021/01/04 06:38:27;;;;;;;10.80;2.53;;;3.00;99.90;;;;;;5074533;28;20102;-56
2021/01/04 06:40:54;;;;;;;18.48;2.58;;;2.90;99.90;;;;;;5057341;28;20070;-56
2021/01/04 06:43:28;;;;;;;14.10;2.63;;;3.00;99.90;;;;;;5063138;28;20095;-56
2021/01/04 06:46:31;;;;;;;12.40;2.13;;;3.00;99.90;;;;;;5069329;28;20045;-55
2021/01/04 06:49:10;;;;;;;16.58;2.45;;;2.90;99.90;;;;;;5069799;28;20024;-57
2021/01/04 06:52:06;;;;;;;15.90;3.08;;;3.00;99.90;;;;;;5063936;28;20478;-58
2021/01/04 06:54:44;;;;;;;12.13;2.30;;;3.00;99.90;;;;;;5058089;28;20067;-54
2021/01/04 06:57:24;;;;;;;16.00;3.08;;;3.00;99.90;;;;;;5063389;28;20039;-57
2021/01/04 07:00:26;;;;;;;13.07;2.95;;;3.10;99.90;;;;;;5062406;28;20023;-56
2021/01/04 07:03:07;;;;;;;20.90;3.08;;;3.10;99.90;;;;;;5069349;28;20121;-56
2021/01/04 07:05:57;;;;;;;13.82;2.85;;;3.20;99.90;;;;;;5071486;28;20684;-57
2021/01/04 07:08:41;;;;;;;17.17;3.03;;;3.20;99.90;;;;;;5053774;28;20055;-57
2021/01/04 07:11:48;;;;;;;19.00;2.70;;;3.20;99.90;;;;;;5060170;28;20106;-58
2021/01/04 07:14:25;;;;;;;15.18;3.10;;;3.30;99.90;;;;;;5062926;28;20040;-56
2021/01/04 07:17:16;;;;;;;14.30;2.88;;;3.30;99.90;;;;;;5060225;28;20024;-56
2021/01/04 07:19:59;;;;;;;13.35;2.53;;;3.30;99.90;;;;;;5060715;28;20107;-57
2021/01/04 07:22:56;;;;;;;13.35;3.38;;;3.30;99.90;;;;;;5063074;28;20056;-56
2021/01/04 07:25:55;;;;;;;12.85;2.63;;;3.40;99.90;;;;;;5064095;28;20090;-55
2021/01/04 07:28:30;;;;;;;13.07;3.00;;;3.40;99.90;;;;;;5057584;28;20112;-55
2021/01/04 07:30:58;;;;;;;18.52;3.10;;;3.40;99.90;;;;;;5060795;28;20027;-56
2021/01/04 07:33:45;;;;;;;14.48;3.03;;;3.40;99.90;;;;;;5057185;28;20024;-56
2021/01/04 07:36:40;;;;;;;20.85;4.63;;;3.40;99.90;;;;;;5070591;28;20036;-58
2021/01/04 07:39:22;;;;;;;18.88;3.55;;;3.50;99.90;;;;;;5053578;28;20041;-59
2021/01/04 07:42:05;;;;;;;12.32;2.63;;;3.50;99.90;;;;;;5052718;28;20039;-56
2021/01/04 07:45:16;;;;;;;11.60;2.70;;;3.50;99.90;;;;;;5064118;28;20035;-54
2021/01/04 07:48:33;;;;;;;13.48;2.45;;;3.60;99.90;;;;;;5053184;28;20359;-58
2021/01/04 07:51:08;;;;;;;;;;;3.60;99.90;;;;;;5057010;28;20024;-56
2021/01/04 07:53:43;;;;;;;16.70;2.83;;;3.60;99.90;;;;;;5072760;28;19998;-55
2021/01/04 07:56:44;;;;;;;19.92;3.08;;;3.60;99.90;;;;;;5065816;28;20725;-54
2021/01/04 07:59:42;;;;;;;13.23;3.22;;;3.60;99.90;;;;;;5061253;28;20486;-60
2021/01/04 08:02:20;;;;;;;15.18;2.47;;;3.60;99.90;;;;;;5058653;28;20037;-56
2021/01/04 08:05:04;;;;;;;13.60;2.90;;;3.60;99.90;;;;;;5067392;28;20024;-55
2021/01/04 08:08:03;;;;;;;21.88;3.65;;;3.60;99.90;;;;;;5055123;28;20029;-59
2021/01/04 08:10:44;;;;;;;14.55;2.80;;;3.70;99.90;;;;;;5068659;28;20064;-60
2021/01/04 08:13:16;;;;;;;11.45;2.40;;;3.80;99.90;;;;;;5061196;28;20504;-60
2021/01/04 08:15:54;;;;;;;15.05;2.55;;;3.80;99.90;;;;;;5065285;28;20078;-58
2021/01/04 08:18:23;;;;;;;14.80;3.40;;;3.80;99.90;;;;;;5064438;28;20040;-57
2021/01/04 08:20:56;;;;;;;12.05;3.03;;;3.80;99.90;;;;;;5062316;28;20032;-58
2021/01/04 08:23:41;;;;;;;12.48;2.72;;;3.90;99.90;;;;;;5066907;28;20104;-57
2021/01/04 08:26:40;;;;;;;20.45;2.63;;;4.00;99.90;;;;;;5052005;28;20025;-54
2021/01/04 08:29:12;;;;;;;16.48;2.85;;;4.00;99.90;;;;;;5059945;28;20055;-53
2021/01/04 08:31:38;;;;;;;17.40;3.05;;;4.10;99.90;;;;;;5059333;28;20032;-55
2021/01/04 08:34:05;;;;;;;16.42;2.60;;;4.10;99.90;;;;;;5060042;28;20028;-57
2021/01/04 08:36:42;;;;;;;16.60;3.25;;;4.20;99.90;;;;;;5060631;28;20143;-55
2021/01/04 08:39:14;;;;;;;16.90;3.35;;;4.20;99.90;;;;;;5055355;28;20035;-57
2021/01/04 08:41:42;;;;;;;9.15;2.20;;;4.20;99.90;;;;;;5051360;28;20028;-57
2021/01/04 08:44:21;;;;;;;13.65;2.30;;;4.20;99.90;;;;;;5066194;28;20052;-56
2021/01/04 08:46:47;;;;;;;11.43;2.45;;;4.20;99.90;;;;;;5055856;28;20040;-56
2021/01/04 08:49:23;;;;;;;7.07;1.95;;;4.20;99.90;;;;;;5059683;28;20021;-58
2021/01/04 08:51:52;;;;;;;18.42;2.58;;;4.30;99.90;;;;;;5064073;28;20393;-58
2021/01/04 08:54:28;;;;;;;17.70;2.78;;;4.30;99.90;;;;;;5072039;28;20035;-56
2021/01/04 08:57:08;;;;;;;12.07;2.65;;;4.30;99.90;;;;;;5063544;28;20020;-56
2021/01/04 08:59:35;;;;;;;14.25;2.35;;;4.30;99.90;;;;;;5064988;28;20378;-56
2021/01/04 09:02:13;;;;;;;14.18;2.70;;;4.30;99.90;;;;;;5061694;28;20032;-54
2021/01/04 09:04:39;;;;;;;11.80;3.03;;;4.30;99.90;;;;;;5057197;28;20106;-57
2021/01/04 09:07:10;;;;;;;11.65;2.17;;;4.30;99.90;;;;;;5062263;28;20378;-57
2021/01/04 09:10:03;;;;;;;15.80;2.55;;;4.30;99.90;;;;;;5055080;28;20028;-55
2021/01/04 09:12:46;;;;;;;14.32;2.30;;;4.30;99.90;;;;;;5053568;28;20048;-55
2021/01/04 09:15:21;;;;;;;14.95;2.97;;;4.40;99.90;;;;;;5059175;28;20020;-57
2021/01/04 09:17:49;;;;;;;;;;;4.40;99.90;;;;;;5055453;28;20032;-57
2021/01/04 09:20:51;;;;;;;9.98;2.20;;;4.50;99.90;;;;;;5065516;28;19915;-58
2021/01/04 09:23:22;;;;;;;11.88;2.35;;;4.50;99.90;;;;;;5057869;28;20076;-58
2021/01/04 09:25:53;;;;;;;17.20;2.53;;;4.60;99.90;;;;;;5053252;28;20037;-59
2021/01/04 09:28:22;;;;;;;14.18;2.72;;;4.50;99.90;;;;;;5052522;28;20029;-57
2021/01/04 09:30:49;;;;;;;20.80;2.83;;;4.50;99.90;;;;;;5064885;28;20103;-58
2021/01/04 09:33:20;;;;;;;14.13;2.72;;;4.50;99.90;;;;;;5069079;28;20027;-60
2021/01/04 09:35:46;;;;;;;17.20;2.58;;;4.50;99.90;;;;;;5051959;28;20366;-58
2021/01/04 09:38:23;;;;;;;12.30;2.45;;;4.60;99.90;;;;;;5052855;28;20025;-55
2021/01/04 09:41:04;;;;;;;16.92;2.30;;;4.60;99.90;;;;;;5063977;28;20032;-56
2021/01/04 09:43:32;;;;;;;16.35;2.70;;;4.70;99.90;;;;;;5050375;28;20037;-55
2021/01/04 09:46:09;;;;;;;18.02;3.00;;;4.70;99.90;;;;;;5064065;28;20017;-55
2021/01/04 09:48:53;;;;;;;13.95;2.45;;;4.70;99.90;;;;;;5055411;28;20082;-56
2021/01/04 09:51:36;;;;;;;16.13;2.95;;;4.80;99.90;;;;;;5057721;28;20025;-56
2021/01/04 09:54:05;;;;;;;14.55;2.50;;;4.80;99.90;;;;;;5055264;28;20021;-58
2021/01/04 09:56:35;;;;;;;16.40;2.63;;;4.80;99.90;;;;;;5065251;28;20048;-57
2021/01/04 09:59:20;;;;;;;16.27;2.75;;;4.80;99.90;;;;;;5054965;28;20035;-59
2021/01/04 10:01:55;;;;;;;13.20;2.30;;;4.80;99.90;;;;;;5059013;28;20414;-56
2021/01/04 10:04:38;;;;;;;14.35;2.53;;;4.80;99.90;;;;;;5061761;28;20028;-57
2021/01/04 10:07:08;;;;;;;18.02;2.40;;;4.80;99.90;;;;;;5063384;28;20046;-59
2021/01/04 10:09:38;;;;;;;18.15;2.55;;;4.80;99.90;;;;;;5059982;28;20025;-58
2021/01/04 10:12:07;;;;;;;18.60;3.33;;;4.80;99.90;;;;;;5059191;28;20475;-60
2021/01/04 10:14:34;;;;;;;13.80;2.80;;;4.90;99.90;;;;;;5064268;28;20063;-58
2021/01/04 10:17:01;;;;;;;14.50;2.88;;;4.90;99.90;;;;;;5069987;28;20033;-59
2021/01/04 10:19:42;;;;;;;14.43;2.80;;;4.90;99.90;;;;;;5070220;28;20029;-58
2021/01/04 10:22:14;;;;;;;10.85;2.65;;;4.90;99.90;;;;;;5069943;28;20047;-60
2021/01/04 10:24:46;;;;;;;17.48;3.33;;;4.90;99.90;;;;;;5070644;28;20048;-59
2021/01/04 10:27:19;;;;;;;18.92;2.85;;;5.00;99.90;;;;;;5071937;28;20099;-59
2021/01/04 10:29:52;;;;;;;18.58;3.35;;;5.00;99.90;;;;;;5062889;28;20037;-58
2021/01/04 10:32:34;;;;;;;13.65;2.47;;;5.00;99.90;;;;;;5053940;28;20034;-58
2021/01/04 10:35:00;;;;;;;14.40;2.50;;;5.00;99.90;;;;;;5060362;28;20531;-60
2021/01/04 10:37:50;;;;;;;17.70;2.85;;;5.00;99.90;;;;;;5073463;28;20032;-58
2021/01/04 10:40:19;;;;;;;11.80;2.45;;;5.00;99.90;;;;;;5057690;28;20029;-58
2021/01/04 10:42:46;;;;;;;13.90;3.00;;;5.00;99.90;;;;;;5054298;28;20520;-57
2021/01/04 10:45:16;;;;;;;12.93;2.95;;;5.10;99.90;;;;;;5054402;28;20110;-58
2021/01/04 10:47:52;;;;;;;14.40;2.65;;;5.20;99.90;;;;;;5060397;28;20031;-54
2021/01/04 10:50:22;;;;;;;16.23;2.95;;;5.20;99.90;;;;;;5055380;28;20028;-58
2021/01/04 10:52:57;;;;;;;15.95;2.90;;;5.20;99.90;;;;;;5059406;28;20020;-58
2021/01/04 10:55:25;;;;;;;16.13;3.08;;;5.20;99.90;;;;;;5063603;28;20029;-59
2021/01/04 10:57:55;;;;;;;13.75;2.60;;;5.30;99.90;;;;;;5057082;28;20458;-59
2021/01/04 11:00:28;;;;;;;12.93;2.58;;;5.30;99.90;;;;;;5065130;28;20031;-59
2021/01/04 11:02:56;;;;;;;15.43;2.88;;;5.30;99.90;;;;;;5056403;28;20023;-57
2021/01/04 11:05:40;;;;;;;15.43;3.00;;;5.30;99.90;;;;;;5061115;28;20044;-58
2021/01/04 11:08:23;;;;;;;12.88;2.85;;;5.30;99.90;;;;;;5069650;28;20024;-58
2021/01/04 11:10:57;;;;;;;14.93;3.08;;;5.30;99.90;;;;;;5059107;28;20048;-58
2021/01/04 11:13:31;;;;;;;18.25;2.90;;;5.30;99.90;;;;;;5055612;28;20476;-58
2021/01/04 11:16:12;;;;;;;12.60;3.03;;;5.30;99.90;;;;;;5064767;28;20028;-57
2021/01/04 11:18:52;;;;;;;14.02;2.95;;;5.30;99.90;;;;;;5059070;28;20287;-57
2021/01/04 11:21:31;;;;;;;14.40;2.65;;;5.50;99.90;;;;;;5067765;28;20032;-57
2021/01/04 11:23:57;;;;;;;12.25;2.03;;;5.50;99.90;;;;;;5070508;28;20032;-56
2021/01/04 11:26:23;;;;;;;12.95;2.47;;;5.40;99.90;;;;;;5071515;28;20119;-55
2021/01/04 11:28:48;;;;;;;12.63;2.72;;;5.40;99.90;;;;;;5070825;28;20020;-57
2021/01/04 11:31:14;;;;;;;12.55;2.28;;;5.50;99.90;;;;;;5061905;28;20044;-58
2021/01/04 11:33:40;;;;;;;13.95;2.40;;;5.50;99.90;;;;;;5071344;28;20047;-57
2021/01/04 11:36:06;;;;;;;12.18;2.20;;;5.50;99.90;;;;;;5066671;28;20036;-56
2021/01/04 11:38:32;;;;;;;14.45;2.83;;;5.40;99.90;;;;;;5065761;28;20392;-60
2021/01/04 11:40:59;;;;;;;10.65;2.47;;;5.50;99.90;;;;;;5071106;28;20029;-57
2021/01/04 11:43:24;;;;;;;15.55;2.83;;;5.50;99.90;;;;;;5064143;28;20017;-57
2021/01/04 11:45:50;;;;;;;16.52;3.10;;;5.50;99.90;;;;;;5067289;28;20469;-59
2021/01/04 11:48:17;;;;;;;13.77;2.45;;;5.50;99.90;;;;;;5059720;28;20021;-58
2021/01/04 11:50:43;;;;;;;18.02;2.80;;;5.40;99.90;;;;;;5057986;28;20025;-56
2021/01/04 11:53:09;;;;;;;16.48;3.15;;;5.40;99.90;;;;;;5078238;28;20365;-58
2021/01/04 11:55:35;;;;;;;12.77;2.78;;;5.40;99.90;;;;;;5069541;28;20032;-59
2021/01/04 11:58:00;;;;;;;13.00;2.78;;;5.50;99.90;;;;;;5055762;28;20040;-60
2021/01/04 12:00:27;;;;;;;12.00;2.30;;;5.50;99.90;;;;;;5063727;28;20359;-60
2021/01/04 12:02:53;;;;;;;12.63;4.00;;;5.50;99.90;;;;;;5062117;28;20036;-57
2021/01/04 12:05:18;;;;;;;11.00;2.72;;;5.50;99.90;;;;;;5053194;28;20028;-59
2021/01/04 12:07:44;;;;;;;13.52;2.30;;;5.50;99.90;;;;;;5060005;28;20041;-59
2021/01/04 12:10:12;;;;;;;11.82;1.95;;;5.50;99.90;;;;;;5052068;28;20025;-56
2021/01/04 12:12:38;;;;;;;13.10;2.42;;;5.60;99.90;;;;;;5069102;28;20066;-57
2021/01/04 12:15:05;;;;;;;12.70;2.17;;;5.50;99.90;;;;;;5072113;28;20514;-61
2021/01/04 12:17:31;;;;;;;9.77;2.28;;;5.50;99.90;;;;;;5055552;28;20104;-57
2021/01/04 12:19:56;;;;;;;11.68;2.55;;;5.50;99.90;;;;;;5067981;28;20116;-59
2021/01/04 12:22:22;;;;;;;15.18;2.47;;;5.50;99.90;;;;;;5060796;28;20021;-57
2021/01/04 12:24:48;;;;;;;15.88;2.75;;;5.50;99.90;;;;;;5062899;28;20044;-59
2021/01/04 12:27:17;;;;;;;11.68;2.60;;;5.50;99.90;;;;;;5069029;28;20040;-59
2021/01/04 12:29:45;;;;;;;17.25;3.03;;;5.50;99.90;;;;;;5057183;28;20402;-59
2021/01/04 12:32:11;;;;;;;12.98;2.70;;;5.60;99.90;;;;;;5071109;28;20051;-58
2021/01/04 12:34:39;;;;;;;10.10;2.45;;;5.50;99.90;;;;;;5061250;28;20052;-58
2021/01/04 12:37:04;;;;;;;9.60;2.15;;;5.50;99.90;;;;;;5055986;28;20021;-59
2021/01/04 12:39:30;;;;;;;12.88;2.45;;;5.40;99.90;;;;;;5067741;28;20029;-59
2021/01/04 12:41:56;;;;;;;11.32;2.30;;;5.50;99.90;;;;;;5068877;28;20028;-57
2021/01/04 12:44:22;;;;;;;9.35;2.03;;;5.40;99.90;;;;;;5055256;28;20027;-56
2021/01/04 12:46:49;;;;;;;8.25;2.13;;;5.40;99.90;;;;;;5059862;28;20020;-59
2021/01/04 12:49:18;;;;;;;15.65;2.05;;;5.50;99.90;;;;;;5050718;28;20033;-60
2021/01/04 12:51:48;;;;;;;15.18;2.70;;;5.50;99.90;;;;;;5057973;28;20025;-60
2021/01/04 12:54:16;;;;;;;14.25;2.45;;;5.50;99.90;;;;;;5053005;28;20056;-57
2021/01/04 12:56:47;;;;;;;11.00;2.42;;;5.50;99.90;;;;;;5057517;28;20116;-58
2021/01/04 12:59:15;;;;;;;8.38;1.77;;;5.40;99.90;;;;;;5064105;28;20355;-57
2021/01/04 13:01:41;;;;;;;9.40;2.13;;;5.40;99.90;;;;;;5058940;28;20490;-57
2021/01/04 13:04:07;;;;;;;12.05;2.38;;;5.50;99.90;;;;;;5051484;28;20055;-59
2021/01/04 13:06:33;;;;;;;13.05;2.55;;;5.50;99.90;;;;;;5052857;28;20025;-59
2021/01/04 13:09:04;;;;;;;9.10;1.80;;;5.50;99.90;;;;;;5051030;28;20036;-58
2021/01/04 13:11:30;;;;;;;16.27;2.55;;;5.50;99.90;;;;;;5059189;28;20083;-60
2021/01/04 13:13:56;;;;;;;11.38;2.10;;;5.50;99.90;;;;;;5059564;28;20030;-58
2021/01/04 13:16:21;;;;;;;11.05;2.30;;;5.40;99.90;;;;;;5070388;28;20403;-56
2021/01/04 13:18:47;;;;;;;12.43;3.15;;;5.40;99.90;;;;;;5064558;28;20115;-60
2021/01/04 13:21:22;;;;;;;11.90;3.30;;;5.50;99.90;;;;;;5058488;28;20028;-57
2021/01/04 13:23:48;;;;;;;9.82;2.28;;;5.40;99.90;;;;;;5056197;28;20366;-59
2021/01/04 13:26:15;;;;;;;11.65;3.35;;;5.40;99.90;;;;;;5052305;28;20033;-59
2021/01/04 13:28:44;;;;;;;13.05;2.55;;;5.40;99.90;;;;;;5061675;28;20462;-58
2021/01/04 13:31:10;;;;;;;11.75;2.45;;;5.40;99.90;;;;;;5067720;28;20029;-59
2021/01/04 13:33:35;;;;;;;10.93;2.20;;;5.30;99.90;;;;;;5053974;28;20082;-58